sensor_id;sensor_type;location;lat;lon;timestamp;temperature;humidity
24326;DHT22;12448;45.532;5.290;2022-08-24T00:00:37;23.00;62.90
24326;DHT22;12448;45.532;5.290;2022-08-24T00:03:03;23.00;62.40
24326;DHT22;12448;45.532;5.290;2022-08-24T00:05:29;23.00;62.90
24326;DHT22;12448;45.532;5.290;2022-08-24T00:07:54;22.90;63.20
24326;DHT22;12448;45.532;5.290;2022-08-24T00:10:20;22.90;63.30
24326;DHT22;12448;45.532;5.290;2022-08-24T00:12:46;22.90;63.30
24326;DHT22;12448;45.532;5.290;2022-08-24T00:15:13;22.90;63.00
24326;DHT22;12448;45.532;5.290;2022-08-24T00:17:41;22.90;62.80
24326;DHT22;12448;45.532;5.290;2022-08-24T00:20:08;22.80;62.80
24326;DHT22;12448;45.532;5.290;2022-08-24T00:22:36;22.80;62.80
24326;DHT22;12448;45.532;5.290;2022-08-24T00:25:02;22.80;62.90
24326;DHT22;12448;45.532;5.290;2022-08-24T00:27:28;22.70;62.80
24326;DHT22;12448;45.532;5.290;2022-08-24T00:29:54;22.70;63.00
24326;DHT22;12448;45.532;5.290;2022-08-24T00:32:20;22.70;63.80
24326;DHT22;12448;45.532;5.290;2022-08-24T00:34:45;22.70;64.20
24326;DHT22;12448;45.532;5.290;2022-08-24T00:37:11;22.60;64.20
24326;DHT22;12448;45.532;5.290;2022-08-24T00:39:37;22.60;64.30
24326;DHT22;12448;45.532;5.290;2022-08-24T00:42:03;22.60;64.30
24326;DHT22;12448;45.532;5.290;2022-08-24T00:44:28;22.60;64.50
24326;DHT22;12448;45.532;5.290;2022-08-24T00:50:06;22.40;64.40
24326;DHT22;12448;45.532;5.290;2022-08-24T00:53:07;22.40;64.50
24326;DHT22;12448;45.532;5.290;2022-08-24T01:11:51;22.20;64.60
24326;DHT22;12448;45.532;5.290;2022-08-24T01:24:42;22.00;65.10
24326;DHT22;12448;45.532;5.290;2022-08-24T01:28:33;21.90;65.60
24326;DHT22;12448;45.532;5.290;2022-08-24T01:34:04;21.90;66.00
24326;DHT22;12448;45.532;5.290;2022-08-24T01:36:54;21.80;66.60
24326;DHT22;12448;45.532;5.290;2022-08-24T01:39:59;21.90;65.80
24326;DHT22;12448;45.532;5.290;2022-08-24T01:42:30;21.80;65.80
24326;DHT22;12448;45.532;5.290;2022-08-24T01:44:59;21.70;66.20
24326;DHT22;12448;45.532;5.290;2022-08-24T01:47:25;21.60;66.60
24326;DHT22;12448;45.532;5.290;2022-08-24T01:49:51;21.50;66.80
24326;DHT22;12448;45.532;5.290;2022-08-24T01:52:20;21.40;67.20
24326;DHT22;12448;45.532;5.290;2022-08-24T01:54:46;21.30;67.50
24326;DHT22;12448;45.532;5.290;2022-08-24T01:57:13;21.20;67.60
24326;DHT22;12448;45.532;5.290;2022-08-24T01:59:39;21.10;68.00
24326;DHT22;12448;45.532;5.290;2022-08-24T02:02:12;21.00;68.50
24326;DHT22;12448;45.532;5.290;2022-08-24T02:04:39;21.00;68.90
24326;DHT22;12448;45.532;5.290;2022-08-24T02:07:05;21.10;69.10
24326;DHT22;12448;45.532;5.290;2022-08-24T02:09:32;21.10;68.80
24326;DHT22;12448;45.532;5.290;2022-08-24T02:11:58;21.20;68.40
24326;DHT22;12448;45.532;5.290;2022-08-24T02:14:23;21.30;68.40
24326;DHT22;12448;45.532;5.290;2022-08-24T02:16:49;21.30;68.50
24326;DHT22;12448;45.532;5.290;2022-08-24T02:19:15;21.40;68.50
24326;DHT22;12448;45.532;5.290;2022-08-24T02:21:41;21.40;68.50
24326;DHT22;12448;45.532;5.290;2022-08-24T02:24:07;21.40;68.30
24326;DHT22;12448;45.532;5.290;2022-08-24T02:26:32;21.50;68.40
24326;DHT22;12448;45.532;5.290;2022-08-24T02:28:58;21.40;68.00
24326;DHT22;12448;45.532;5.290;2022-08-24T02:31:24;21.30;67.80
24326;DHT22;12448;45.532;5.290;2022-08-24T02:33:49;21.20;68.00
24326;DHT22;12448;45.532;5.290;2022-08-24T02:36:15;21.10;68.30
24326;DHT22;12448;45.532;5.290;2022-08-24T02:38:41;21.10;68.60
24326;DHT22;12448;45.532;5.290;2022-08-24T02:41:08;21.10;68.80
24326;DHT22;12448;45.532;5.290;2022-08-24T02:43:34;21.10;69.00
24326;DHT22;12448;45.532;5.290;2022-08-24T02:46:00;21.20;69.10
24326;DHT22;12448;45.532;5.290;2022-08-24T02:48:25;21.20;68.90
24326;DHT22;12448;45.532;5.290;2022-08-24T02:50:52;21.20;68.90
24326;DHT22;12448;45.532;5.290;2022-08-24T02:53:19;21.20;69.00
24326;DHT22;12448;45.532;5.290;2022-08-24T02:55:45;21.20;68.40
24326;DHT22;12448;45.532;5.290;2022-08-24T02:58:12;21.20;68.40
24326;DHT22;12448;45.532;5.290;2022-08-24T03:00:39;21.20;68.30
24326;DHT22;12448;45.532;5.290;2022-08-24T03:03:07;21.20;68.30
24326;DHT22;12448;45.532;5.290;2022-08-24T03:05:33;21.20;68.30
24326;DHT22;12448;45.532;5.290;2022-08-24T03:07:59;21.10;68.50
24326;DHT22;12448;45.532;5.290;2022-08-24T03:10:25;21.00;68.60
24326;DHT22;12448;45.532;5.290;2022-08-24T03:12:51;20.90;68.80
24326;DHT22;12448;45.532;5.290;2022-08-24T03:15:19;20.80;69.20
24326;DHT22;12448;45.532;5.290;2022-08-24T03:17:47;20.80;69.50
24326;DHT22;12448;45.532;5.290;2022-08-24T03:20:15;20.80;69.50
24326;DHT22;12448;45.532;5.290;2022-08-24T03:22:42;20.80;69.50
24326;DHT22;12448;45.532;5.290;2022-08-24T03:25:09;20.80;69.50
24326;DHT22;12448;45.532;5.290;2022-08-24T03:27:35;20.80;69.40
24326;DHT22;12448;45.532;5.290;2022-08-24T03:30:02;20.80;69.40
24326;DHT22;12448;45.532;5.290;2022-08-24T03:32:28;20.80;69.60
24326;DHT22;12448;45.532;5.290;2022-08-24T03:34:54;20.90;69.50
24326;DHT22;12448;45.532;5.290;2022-08-24T03:37:20;20.80;69.40
24326;DHT22;12448;45.532;5.290;2022-08-24T03:39:46;20.80;69.70
24326;DHT22;12448;45.532;5.290;2022-08-24T03:42:13;20.80;69.70
24326;DHT22;12448;45.532;5.290;2022-08-24T03:44:39;20.70;69.60
24326;DHT22;12448;45.532;5.290;2022-08-24T03:47:06;20.80;69.70
24326;DHT22;12448;45.532;5.290;2022-08-24T03:49:35;20.70;69.80
24326;DHT22;12448;45.532;5.290;2022-08-24T03:52:01;20.70;69.80
24326;DHT22;12448;45.532;5.290;2022-08-24T03:54:26;20.70;69.80
24326;DHT22;12448;45.532;5.290;2022-08-24T03:56:52;20.70;69.80
24326;DHT22;12448;45.532;5.290;2022-08-24T03:59:18;20.70;69.80
24326;DHT22;12448;45.532;5.290;2022-08-24T04:01:43;20.70;69.80
24326;DHT22;12448;45.532;5.290;2022-08-24T04:04:09;20.70;70.20
24326;DHT22;12448;45.532;5.290;2022-08-24T04:06:36;20.70;70.30
24326;DHT22;12448;45.532;5.290;2022-08-24T04:09:03;20.70;70.10
24326;DHT22;12448;45.532;5.290;2022-08-24T04:11:29;20.70;70.10
24326;DHT22;12448;45.532;5.290;2022-08-24T04:13:56;20.60;70.20
24326;DHT22;12448;45.532;5.290;2022-08-24T04:16:24;20.60;70.20
24326;DHT22;12448;45.532;5.290;2022-08-24T04:18:50;20.60;70.20
24326;DHT22;12448;45.532;5.290;2022-08-24T04:21:23;20.60;70.30
24326;DHT22;12448;45.532;5.290;2022-08-24T04:23:55;20.60;70.30
24326;DHT22;12448;45.532;5.290;2022-08-24T04:26:23;20.50;70.10
24326;DHT22;12448;45.532;5.290;2022-08-24T04:28:49;20.50;70.40
24326;DHT22;12448;45.532;5.290;2022-08-24T04:31:16;20.40;70.60
24326;DHT22;12448;45.532;5.290;2022-08-24T04:33:46;20.40;71.00
24326;DHT22;12448;45.532;5.290;2022-08-24T04:36:16;20.40;71.50
24326;DHT22;12448;45.532;5.290;2022-08-24T04:38:42;20.40;71.30
24326;DHT22;12448;45.532;5.290;2022-08-24T04:41:10;20.50;71.50
24326;DHT22;12448;45.532;5.290;2022-08-24T04:43:37;20.50;71.50
24326;DHT22;12448;45.532;5.290;2022-08-24T04:46:05;20.50;71.50
24326;DHT22;12448;45.532;5.290;2022-08-24T04:48:31;20.60;71.60
24326;DHT22;12448;45.532;5.290;2022-08-24T04:51:05;20.50;71.10
24326;DHT22;12448;45.532;5.290;2022-08-24T04:53:32;20.50;71.00
24326;DHT22;12448;45.532;5.290;2022-08-24T04:55:59;20.50;71.10
24326;DHT22;12448;45.532;5.290;2022-08-24T04:58:26;20.50;71.00
24326;DHT22;12448;45.532;5.290;2022-08-24T05:00:56;20.50;71.00
24326;DHT22;12448;45.532;5.290;2022-08-24T05:03:22;20.50;71.00
24326;DHT22;12448;45.532;5.290;2022-08-24T05:05:58;20.50;71.00
24326;DHT22;12448;45.532;5.290;2022-08-24T05:08:24;20.40;71.00
24326;DHT22;12448;45.532;5.290;2022-08-24T05:10:50;20.40;71.20
24326;DHT22;12448;45.532;5.290;2022-08-24T05:13:17;20.40;71.40
24326;DHT22;12448;45.532;5.290;2022-08-24T05:15:46;20.20;71.70
24326;DHT22;12448;45.532;5.290;2022-08-24T05:18:41;20.20;72.00
24326;DHT22;12448;45.532;5.290;2022-08-24T05:21:46;20.00;72.80
24326;DHT22;12448;45.532;5.290;2022-08-24T05:24:14;20.00;73.30
24326;DHT22;12448;45.532;5.290;2022-08-24T05:26:40;20.00;73.30
24326;DHT22;12448;45.532;5.290;2022-08-24T05:29:06;20.10;73.20
24326;DHT22;12448;45.532;5.290;2022-08-24T05:31:53;20.10;73.40
24326;DHT22;12448;45.532;5.290;2022-08-24T05:34:34;20.00;73.60
24326;DHT22;12448;45.532;5.290;2022-08-24T05:37:09;19.90;74.10
24326;DHT22;12448;45.532;5.290;2022-08-24T05:39:41;19.90;74.40
24326;DHT22;12448;45.532;5.290;2022-08-24T05:42:25;20.00;74.50
24326;DHT22;12448;45.532;5.290;2022-08-24T05:44:50;19.90;74.80
24326;DHT22;12448;45.532;5.290;2022-08-24T05:47:16;20.00;74.80
24326;DHT22;12448;45.532;5.290;2022-08-24T05:49:42;20.00;74.80
24326;DHT22;12448;45.532;5.290;2022-08-24T05:52:08;20.10;74.80
24326;DHT22;12448;45.532;5.290;2022-08-24T05:54:33;20.10;74.80
24326;DHT22;12448;45.532;5.290;2022-08-24T05:56:59;20.10;75.00
24326;DHT22;12448;45.532;5.290;2022-08-24T05:59:48;20.20;75.10
24326;DHT22;12448;45.532;5.290;2022-08-24T06:02:15;20.20;75.60
24326;DHT22;12448;45.532;5.290;2022-08-24T06:04:41;20.30;75.70
24326;DHT22;12448;45.532;5.290;2022-08-24T06:07:13;20.40;75.60
24326;DHT22;12448;45.532;5.290;2022-08-24T06:09:41;20.50;75.50
24326;DHT22;12448;45.532;5.290;2022-08-24T06:12:08;20.60;75.10
24326;DHT22;12448;45.532;5.290;2022-08-24T06:14:34;20.80;74.80
24326;DHT22;12448;45.532;5.290;2022-08-24T06:17:03;20.90;75.20
24326;DHT22;12448;45.532;5.290;2022-08-24T06:19:30;21.00;75.00
24326;DHT22;12448;45.532;5.290;2022-08-24T06:21:57;21.00;74.60
24326;DHT22;12448;45.532;5.290;2022-08-24T06:24:23;21.00;74.60
24326;DHT22;12448;45.532;5.290;2022-08-24T06:27:10;21.00;74.60
24326;DHT22;12448;45.532;5.290;2022-08-24T06:29:56;21.10;74.70
24326;DHT22;12448;45.532;5.290;2022-08-24T06:32:22;21.10;74.20
24326;DHT22;12448;45.532;5.290;2022-08-24T06:34:49;21.20;73.90
24326;DHT22;12448;45.532;5.290;2022-08-24T06:37:15;21.30;73.80
24326;DHT22;12448;45.532;5.290;2022-08-24T06:39:41;21.40;73.30
24326;DHT22;12448;45.532;5.290;2022-08-24T06:42:06;21.50;73.30
24326;DHT22;12448;45.532;5.290;2022-08-24T06:44:54;21.60;73.00
24326;DHT22;12448;45.532;5.290;2022-08-24T06:47:48;21.70;72.40
24326;DHT22;12448;45.532;5.290;2022-08-24T06:50:21;21.70;72.00
24326;DHT22;12448;45.532;5.290;2022-08-24T06:52:47;21.80;71.80
24326;DHT22;12448;45.532;5.290;2022-08-24T06:55:13;21.90;71.80
24326;DHT22;12448;45.532;5.290;2022-08-24T06:57:47;22.00;71.60
24326;DHT22;12448;45.532;5.290;2022-08-24T07:00:13;22.10;71.00
24326;DHT22;12448;45.532;5.290;2022-08-24T07:02:39;22.20;70.50
24326;DHT22;12448;45.532;5.290;2022-08-24T07:05:05;22.30;70.80
24326;DHT22;12448;45.532;5.290;2022-08-24T07:07:31;22.30;70.30
24326;DHT22;12448;45.532;5.290;2022-08-24T07:10:01;22.40;69.20
24326;DHT22;12448;45.532;5.290;2022-08-24T07:12:27;22.40;67.60
24326;DHT22;12448;45.532;5.290;2022-08-24T07:14:56;22.40;66.60
24326;DHT22;12448;45.532;5.290;2022-08-24T07:17:21;22.50;66.60
24326;DHT22;12448;45.532;5.290;2022-08-24T07:19:47;22.50;66.60
24326;DHT22;12448;45.532;5.290;2022-08-24T07:22:13;22.50;66.20
24326;DHT22;12448;45.532;5.290;2022-08-24T07:24:39;22.60;66.20
24326;DHT22;12448;45.532;5.290;2022-08-24T07:27:05;22.60;66.20
24326;DHT22;12448;45.532;5.290;2022-08-24T07:29:31;22.70;65.70
24326;DHT22;12448;45.532;5.290;2022-08-24T07:31:57;22.70;65.40
24326;DHT22;12448;45.532;5.290;2022-08-24T07:34:23;22.80;64.00
24326;DHT22;12448;45.532;5.290;2022-08-24T07:36:49;22.50;63.00
24326;DHT22;12448;45.532;5.290;2022-08-24T07:39:16;22.80;62.90
24326;DHT22;12448;45.532;5.290;2022-08-24T07:41:43;22.50;62.70
24326;DHT22;12448;45.532;5.290;2022-08-24T07:44:10;22.90;63.10
24326;DHT22;12448;45.532;5.290;2022-08-24T07:46:38;22.90;62.80
24326;DHT22;12448;45.532;5.290;2022-08-24T07:49:04;22.90;63.20
24326;DHT22;12448;45.532;5.290;2022-08-24T07:51:30;23.00;62.10
24326;DHT22;12448;45.532;5.290;2022-08-24T07:53:55;23.00;61.40
24326;DHT22;12448;45.532;5.290;2022-08-24T07:56:21;23.00;61.40
24326;DHT22;12448;45.532;5.290;2022-08-24T07:58:47;23.00;61.40
24326;DHT22;12448;45.532;5.290;2022-08-24T08:01:13;23.00;61.50
24326;DHT22;12448;45.532;5.290;2022-08-24T08:03:38;23.00;61.00
24326;DHT22;12448;45.532;5.290;2022-08-24T08:06:06;23.10;61.00
24326;DHT22;12448;45.532;5.290;2022-08-24T08:08:36;23.00;60.60
24326;DHT22;12448;45.532;5.290;2022-08-24T08:11:03;23.10;60.50
24326;DHT22;12448;45.532;5.290;2022-08-24T08:13:29;23.20;60.80
24326;DHT22;12448;45.532;5.290;2022-08-24T08:15:56;23.20;60.90
24326;DHT22;12448;45.532;5.290;2022-08-24T08:18:24;23.30;60.80
24326;DHT22;12448;45.532;5.290;2022-08-24T08:20:50;23.30;60.70
24326;DHT22;12448;45.532;5.290;2022-08-24T08:23:16;23.30;60.20
24326;DHT22;12448;45.532;5.290;2022-08-24T08:26:00;23.40;60.00
24326;DHT22;12448;45.532;5.290;2022-08-24T08:28:28;23.80;59.60
24326;DHT22;12448;45.532;5.290;2022-08-24T08:30:59;23.40;59.00
24326;DHT22;12448;45.532;5.290;2022-08-24T08:33:24;23.50;58.80
24326;DHT22;12448;45.532;5.290;2022-08-24T08:35:52;23.50;58.70
24326;DHT22;12448;45.532;5.290;2022-08-24T08:38:20;23.50;58.50
24326;DHT22;12448;45.532;5.290;2022-08-24T08:40:59;23.60;58.40
24326;DHT22;12448;45.532;5.290;2022-08-24T08:57:06;24.00;56.90
24326;DHT22;12448;45.532;5.290;2022-08-24T09:08:39;24.10;56.20
24326;DHT22;12448;45.532;5.290;2022-08-24T09:19:31;24.30;56.00
24326;DHT22;12448;45.532;5.290;2022-08-24T09:30:03;24.40;55.80
24326;DHT22;12448;45.532;5.290;2022-08-24T09:32:35;24.40;55.50
24326;DHT22;12448;45.532;5.290;2022-08-24T09:35:05;24.40;55.70
24326;DHT22;12448;45.532;5.290;2022-08-24T09:38:12;24.40;55.60
24326;DHT22;12448;45.532;5.290;2022-08-24T10:00:33;24.60;54.10
24326;DHT22;12448;45.532;5.290;2022-08-24T10:17:19;24.90;53.20
24326;DHT22;12448;45.532;5.290;2022-08-24T10:19:50;25.00;53.50
24326;DHT22;12448;45.532;5.290;2022-08-24T10:22:27;25.10;53.80
24326;DHT22;12448;45.532;5.290;2022-08-24T10:31:11;25.40;53.30
24326;DHT22;12448;45.532;5.290;2022-08-24T10:34:03;25.50;53.50
24326;DHT22;12448;45.532;5.290;2022-08-24T10:48:56;25.50;51.40
24326;DHT22;12448;45.532;5.290;2022-08-24T10:54:09;25.60;52.20
24326;DHT22;12448;45.532;5.290;2022-08-24T10:59:33;25.80;52.20
24326;DHT22;12448;45.532;5.290;2022-08-24T11:04:32;25.80;51.20
24326;DHT22;12448;45.532;5.290;2022-08-24T11:07:07;25.90;50.70
24326;DHT22;12448;45.532;5.290;2022-08-24T11:09:54;25.90;51.50
24326;DHT22;12448;45.532;5.290;2022-08-24T11:12:31;26.00;50.40
24326;DHT22;12448;45.532;5.290;2022-08-24T11:15:18;26.10;50.50
24326;DHT22;12448;45.532;5.290;2022-08-24T11:17:59;26.10;50.00
24326;DHT22;12448;45.532;5.290;2022-08-24T11:20:32;26.20;48.80
24326;DHT22;12448;45.532;5.290;2022-08-24T11:23:26;26.30;49.20
24326;DHT22;12448;45.532;5.290;2022-08-24T11:26:05;26.30;48.40
24326;DHT22;12448;45.532;5.290;2022-08-24T11:28:46;26.50;49.60
24326;DHT22;12448;45.532;5.290;2022-08-24T11:31:42;26.60;49.40
24326;DHT22;12448;45.532;5.290;2022-08-24T11:34:13;26.70;49.20
24326;DHT22;12448;45.532;5.290;2022-08-24T11:36:40;26.80;49.50
24326;DHT22;12448;45.532;5.290;2022-08-24T11:47:46;27.20;47.90
24326;DHT22;12448;45.532;5.290;2022-08-24T11:50:47;27.10;47.50
24326;DHT22;12448;45.532;5.290;2022-08-24T11:56:12;27.10;47.20
24326;DHT22;12448;45.532;5.290;2022-08-24T11:59:03;27.20;47.40
24326;DHT22;12448;45.532;5.290;2022-08-24T12:01:44;27.20;47.30
24326;DHT22;12448;45.532;5.290;2022-08-24T12:04:33;27.30;48.30
24326;DHT22;12448;45.532;5.290;2022-08-24T12:12:56;27.70;48.20
24326;DHT22;12448;45.532;5.290;2022-08-24T12:15:43;27.70;46.40
24326;DHT22;12448;45.532;5.290;2022-08-24T12:20:49;27.80;47.30
24326;DHT22;12448;45.532;5.290;2022-08-24T12:23:35;27.90;47.90
24326;DHT22;12448;45.532;5.290;2022-08-24T12:26:28;28.10;46.50
24326;DHT22;12448;45.532;5.290;2022-08-24T12:28:59;28.00;46.50
24326;DHT22;12448;45.532;5.290;2022-08-24T12:37:17;28.10;46.50
24326;DHT22;12448;45.532;5.290;2022-08-24T12:39:49;28.10;45.90
24326;DHT22;12448;45.532;5.290;2022-08-24T12:42:23;28.10;46.60
24326;DHT22;12448;45.532;5.290;2022-08-24T12:44:57;28.10;46.00
24326;DHT22;12448;45.532;5.290;2022-08-24T12:47:34;28.20;46.40
24326;DHT22;12448;45.532;5.290;2022-08-24T12:50:07;28.70;46.90
24326;DHT22;12448;45.532;5.290;2022-08-24T12:52:47;28.30;46.40
24326;DHT22;12448;45.532;5.290;2022-08-24T12:55:58;28.40;46.20
24326;DHT22;12448;45.532;5.290;2022-08-24T12:58:34;28.50;45.80
24326;DHT22;12448;45.532;5.290;2022-08-24T13:01:05;28.50;46.30
24326;DHT22;12448;45.532;5.290;2022-08-24T13:06:02;28.70;46.40
24326;DHT22;12448;45.532;5.290;2022-08-24T13:08:40;28.70;46.10
24326;DHT22;12448;45.532;5.290;2022-08-24T13:11:10;28.80;44.80
24326;DHT22;12448;45.532;5.290;2022-08-24T13:13:47;28.70;44.20
24326;DHT22;12448;45.532;5.290;2022-08-24T13:22:35;28.80;44.70
24326;DHT22;12448;45.532;5.290;2022-08-24T13:24:58;28.80;44.60
24326;DHT22;12448;45.532;5.290;2022-08-24T13:30:20;28.90;44.50
24326;DHT22;12448;45.532;5.290;2022-08-24T13:32:54;28.90;44.70
24326;DHT22;12448;45.532;5.290;2022-08-24T13:35:35;28.90;44.70
24326;DHT22;12448;45.532;5.290;2022-08-24T13:49:23;29.00;43.50
24326;DHT22;12448;45.532;5.290;2022-08-24T13:55:03;29.10;43.50
24326;DHT22;12448;45.532;5.290;2022-08-24T13:57:44;29.20;43.60
24326;DHT22;12448;45.532;5.290;2022-08-24T14:03:13;29.30;43.60
24326;DHT22;12448;45.532;5.290;2022-08-24T14:11:57;29.50;42.80
24326;DHT22;12448;45.532;5.290;2022-08-24T14:32:26;29.40;40.90
24326;DHT22;12448;45.532;5.290;2022-08-24T14:42:16;29.40;42.00
24326;DHT22;12448;45.532;5.290;2022-08-24T14:50:10;29.50;42.20
24326;DHT22;12448;45.532;5.290;2022-08-24T15:01:47;29.60;40.50
24326;DHT22;12448;45.532;5.290;2022-08-24T15:07:27;29.50;40.00
24326;DHT22;12448;45.532;5.290;2022-08-24T15:09:54;29.50;39.80
24326;DHT22;12448;45.532;5.290;2022-08-24T15:15:34;29.50;39.70
24326;DHT22;12448;45.532;5.290;2022-08-24T15:18:12;29.50;40.10
24326;DHT22;12448;45.532;5.290;2022-08-24T15:23:46;29.40;40.30
24326;DHT22;12448;45.532;5.290;2022-08-24T15:28:48;29.30;39.30
24326;DHT22;12448;45.532;5.290;2022-08-24T15:31:19;29.30;39.00
24326;DHT22;12448;45.532;5.290;2022-08-24T15:36:19;29.30;39.20
24326;DHT22;12448;45.532;5.290;2022-08-24T15:38:45;29.30;39.70
24326;DHT22;12448;45.532;5.290;2022-08-24T15:46:20;29.40;39.80
24326;DHT22;12448;45.532;5.290;2022-08-24T15:48:48;29.30;39.70
24326;DHT22;12448;45.532;5.290;2022-08-24T15:56:51;29.40;39.20
24326;DHT22;12448;45.532;5.290;2022-08-24T15:59:30;29.30;38.80
24326;DHT22;12448;45.532;5.290;2022-08-24T16:05:19;29.30;39.80
24326;DHT22;12448;45.532;5.290;2022-08-24T16:10:32;29.30;40.50
24326;DHT22;12448;45.532;5.290;2022-08-24T16:18:14;29.20;40.60
24326;DHT22;12448;45.532;5.290;2022-08-24T16:20:40;29.10;40.10
24326;DHT22;12448;45.532;5.290;2022-08-24T16:23:11;29.10;40.10
24326;DHT22;12448;45.532;5.290;2022-08-24T16:25:41;29.10;40.90
24326;DHT22;12448;45.532;5.290;2022-08-24T16:30:53;29.10;40.70
24326;DHT22;12448;45.532;5.290;2022-08-24T16:33:39;29.10;41.30
24326;DHT22;12448;45.532;5.290;2022-08-24T16:36:08;29.10;41.50
24326;DHT22;12448;45.532;5.290;2022-08-24T16:38:36;29.00;41.90
24326;DHT22;12448;45.532;5.290;2022-08-24T16:41:09;28.90;41.40
24326;DHT22;12448;45.532;5.290;2022-08-24T16:43:37;28.90;40.90
24326;DHT22;12448;45.532;5.290;2022-08-24T16:46:05;28.80;41.50
24326;DHT22;12448;45.532;5.290;2022-08-24T16:48:31;28.80;42.00
24326;DHT22;12448;45.532;5.290;2022-08-24T16:50:57;28.80;42.10
24326;DHT22;12448;45.532;5.290;2022-08-24T16:53:23;28.80;42.50
24326;DHT22;12448;45.532;5.290;2022-08-24T16:55:50;28.70;42.10
24326;DHT22;12448;45.532;5.290;2022-08-24T16:58:16;28.70;41.50
24326;DHT22;12448;45.532;5.290;2022-08-24T17:00:42;28.60;41.80
24326;DHT22;12448;45.532;5.290;2022-08-24T17:03:10;28.60;42.20
24326;DHT22;12448;45.532;5.290;2022-08-24T17:05:36;28.50;42.40
24326;DHT22;12448;45.532;5.290;2022-08-24T17:08:02;28.50;42.30
24326;DHT22;12448;45.532;5.290;2022-08-24T17:10:28;28.50;43.10
24326;DHT22;12448;45.532;5.290;2022-08-24T17:12:54;28.50;42.90
24326;DHT22;12448;45.532;5.290;2022-08-24T17:15:20;28.50;42.60
24326;DHT22;12448;45.532;5.290;2022-08-24T17:17:55;28.50;42.30
24326;DHT22;12448;45.532;5.290;2022-08-24T17:20:22;28.50;41.80
24326;DHT22;12448;45.532;5.290;2022-08-24T17:22:48;28.60;42.40
24326;DHT22;12448;45.532;5.290;2022-08-24T17:25:14;28.60;42.60
24326;DHT22;12448;45.532;5.290;2022-08-24T17:27:39;28.60;42.30
24326;DHT22;12448;45.532;5.290;2022-08-24T17:30:08;28.60;42.50
24326;DHT22;12448;45.532;5.290;2022-08-24T17:32:35;28.70;42.60
24326;DHT22;12448;45.532;5.290;2022-08-24T17:35:01;28.70;42.80
24326;DHT22;12448;45.532;5.290;2022-08-24T17:37:28;28.80;42.90
24326;DHT22;12448;45.532;5.290;2022-08-24T17:39:56;28.90;43.10
24326;DHT22;12448;45.532;5.290;2022-08-24T17:42:22;29.00;43.10
24326;DHT22;12448;45.532;5.290;2022-08-24T17:44:48;29.10;42.60
24326;DHT22;12448;45.532;5.290;2022-08-24T17:47:13;29.10;42.30
24326;DHT22;12448;45.532;5.290;2022-08-24T17:49:39;29.30;42.40
24326;DHT22;12448;45.532;5.290;2022-08-24T17:52:06;29.30;42.10
24326;DHT22;12448;45.532;5.290;2022-08-24T17:54:32;29.40;41.90
24326;DHT22;12448;45.532;5.290;2022-08-24T17:56:57;29.50;42.10
24326;DHT22;12448;45.532;5.290;2022-08-24T17:59:30;29.60;42.50
24326;DHT22;12448;45.532;5.290;2022-08-24T18:01:58;29.60;42.00
24326;DHT22;12448;45.532;5.290;2022-08-24T18:04:25;29.50;42.50
24326;DHT22;12448;45.532;5.290;2022-08-24T18:07:00;29.60;42.10
24326;DHT22;12448;45.532;5.290;2022-08-24T18:09:39;29.60;41.90
24326;DHT22;12448;45.532;5.290;2022-08-24T18:12:06;29.60;42.60
24326;DHT22;12448;45.532;5.290;2022-08-24T18:14:33;29.50;42.40
24326;DHT22;12448;45.532;5.290;2022-08-24T18:17:01;29.40;43.00
24326;DHT22;12448;45.532;5.290;2022-08-24T18:19:30;29.20;43.10
24326;DHT22;12448;45.532;5.290;2022-08-24T18:21:56;29.00;43.50
24326;DHT22;12448;45.532;5.290;2022-08-24T18:24:22;28.80;43.80
24326;DHT22;12448;45.532;5.290;2022-08-24T18:26:49;28.60;43.80
24326;DHT22;12448;45.532;5.290;2022-08-24T18:29:18;28.40;44.00
24326;DHT22;12448;45.532;5.290;2022-08-24T18:31:46;28.20;44.50
24326;DHT22;12448;45.532;5.290;2022-08-24T18:34:17;28.10;44.80
24326;DHT22;12448;45.532;5.290;2022-08-24T18:36:42;28.00;44.90
24326;DHT22;12448;45.532;5.290;2022-08-24T18:39:08;27.90;45.10
24326;DHT22;12448;45.532;5.290;2022-08-24T18:41:36;27.70;45.10
24326;DHT22;12448;45.532;5.290;2022-08-24T18:44:04;27.70;45.80
24326;DHT22;12448;45.532;5.290;2022-08-24T18:46:31;27.60;45.90
24326;DHT22;12448;45.532;5.290;2022-08-24T18:48:58;27.50;46.10
24326;DHT22;12448;45.532;5.290;2022-08-24T18:51:24;27.50;46.80
24326;DHT22;12448;45.532;5.290;2022-08-24T18:53:55;27.40;47.70
24326;DHT22;12448;45.532;5.290;2022-08-24T18:56:23;27.30;47.50
24326;DHT22;12448;45.532;5.290;2022-08-24T18:58:49;27.30;47.50
24326;DHT22;12448;45.532;5.290;2022-08-24T19:01:15;27.20;47.50
24326;DHT22;12448;45.532;5.290;2022-08-24T19:03:41;27.20;47.80
24326;DHT22;12448;45.532;5.290;2022-08-24T19:06:07;27.10;48.10
24326;DHT22;12448;45.532;5.290;2022-08-24T19:08:32;26.80;48.00
24326;DHT22;12448;45.532;5.290;2022-08-24T19:10:58;27.00;48.30
24326;DHT22;12448;45.532;5.290;2022-08-24T19:13:24;26.90;48.30
24326;DHT22;12448;45.532;5.290;2022-08-24T19:15:49;26.90;48.30
24326;DHT22;12448;45.532;5.290;2022-08-24T19:18:17;26.80;48.50
24326;DHT22;12448;45.532;5.290;2022-08-24T19:20:47;26.80;48.80
24326;DHT22;12448;45.532;5.290;2022-08-24T19:23:22;26.70;49.00
24326;DHT22;12448;45.532;5.290;2022-08-24T19:25:49;26.60;48.80
24326;DHT22;12448;45.532;5.290;2022-08-24T19:28:15;26.50;48.90
24326;DHT22;12448;45.532;5.290;2022-08-24T19:30:41;26.40;49.30
24326;DHT22;12448;45.532;5.290;2022-08-24T19:33:10;26.30;49.50
24326;DHT22;12448;45.532;5.290;2022-08-24T19:35:36;26.20;49.60
24326;DHT22;12448;45.532;5.290;2022-08-24T19:38:02;26.20;49.80
24326;DHT22;12448;45.532;5.290;2022-08-24T19:40:28;26.20;50.00
24326;DHT22;12448;45.532;5.290;2022-08-24T19:42:54;26.10;50.30
24326;DHT22;12448;45.532;5.290;2022-08-24T19:45:24;26.10;50.30
24326;DHT22;12448;45.532;5.290;2022-08-24T19:48:10;26.00;50.40
24326;DHT22;12448;45.532;5.290;2022-08-24T19:50:38;26.00;50.40
24326;DHT22;12448;45.532;5.290;2022-08-24T19:53:04;25.90;50.50
24326;DHT22;12448;45.532;5.290;2022-08-24T19:55:30;25.80;50.60
24326;DHT22;12448;45.532;5.290;2022-08-24T19:58:07;25.80;50.90
24326;DHT22;12448;45.532;5.290;2022-08-24T20:00:41;25.70;51.10
24326;DHT22;12448;45.532;5.290;2022-08-24T20:03:08;25.70;51.30
24326;DHT22;12448;45.532;5.290;2022-08-24T20:05:34;25.60;51.40
24326;DHT22;12448;45.532;5.290;2022-08-24T20:08:00;25.60;52.10
24326;DHT22;12448;45.532;5.290;2022-08-24T20:10:29;25.50;51.60
24326;DHT22;12448;45.532;5.290;2022-08-24T20:12:55;25.50;51.60
24326;DHT22;12448;45.532;5.290;2022-08-24T20:15:22;25.40;51.40
24326;DHT22;12448;45.532;5.290;2022-08-24T20:17:50;25.10;51.60
24326;DHT22;12448;45.532;5.290;2022-08-24T20:20:19;25.20;52.10